sensor_id;sensor_type;location;lat;lon;timestamp;pressure;altitude;pressure_sealevel;temperature;humidity
25759;BME280;13604;52.496;13.456;2023-03-03T00:01:09;101938.34;;;-1.16;100.00
25759;BME280;13604;52.496;13.456;2023-03-03T00:03:34;101946.19;;;-1.15;100.00
25759;BME280;13604;52.496;13.456;2023-03-03T00:06:01;101925.31;;;-1.26;100.00
25759;BME280;13604;52.496;13.456;2023-03-03T00:08:27;101947.09;;;-1.14;100.00
25759;BME280;13604;52.496;13.456;2023-03-03T00:10:52;101949.91;;;-1.20;100.00
25759;BME280;13604;52.496;13.456;2023-03-03T00:13:22;101961.97;;;-1.26;100.00
25759;BME280;13604;52.496;13.456;2023-03-03T00:15:47;101963.47;;;-1.28;100.00
25759;BME280;13604;52.496;13.456;2023-03-03T00:18:21;101968.16;;;-1.24;100.00
25759;BME280;13604;52.496;13.456;2023-03-03T00:20:49;101944.72;;;-1.36;100.00
25759;BME280;13604;52.496;13.456;2023-03-03T00:23:28;101957.94;;;-1.24;100.00
25759;BME280;13604;52.496;13.456;2023-03-03T00:25:55;101966.38;;;-1.25;100.00
25759;BME280;13604;52.496;13.456;2023-03-03T00:28:40;101956.16;;;-1.25;100.00
25759;BME280;13604;52.496;13.456;2023-03-03T00:31:14;101928.31;;;-1.38;100.00
25759;BME280;13604;52.496;13.456;2023-03-03T00:33:52;101939.59;;;-1.36;100.00
25759;BME280;13604;52.496;13.456;2023-03-03T00:36:29;101945.16;;;-1.24;100.00
25759;BME280;13604;52.496;13.456;2023-03-03T00:39:25;101940.47;;;-1.28;100.00
25759;BME280;13604;52.496;13.456;2023-03-03T00:41:50;101935.91;;;-1.31;100.00
25759;BME280;13604;52.496;13.456;2023-03-03T00:44:37;101947.00;;;-1.23;100.00
25759;BME280;13604;52.496;13.456;2023-03-03T00:47:27;101931.06;;;-1.20;100.00
25759;BME280;13604;52.496;13.456;2023-03-03T00:49:55;101927.16;;;-1.33;100.00
25759;BME280;13604;52.496;13.456;2023-03-03T00:52:26;101928.31;;;-1.38;100.00
25759;BME280;13604;52.496;13.456;2023-03-03T00:54:52;101939.22;;;-1.32;100.00
25759;BME280;13604;52.496;13.456;2023-03-03T00:57:18;101918.78;;;-1.32;100.00
25759;BME280;13604;52.496;13.456;2023-03-03T00:59:43;101898.03;;;-1.42;100.00
25759;BME280;13604;52.496;13.456;2023-03-03T01:02:10;101919.09;;;-1.28;100.00
25759;BME280;13604;52.496;13.456;2023-03-03T01:04:35;101903.56;;;-1.30;100.00
25759;BME280;13604;52.496;13.456;2023-03-03T01:07:01;101916.88;;;-1.25;100.00
25759;BME280;13604;52.496;13.456;2023-03-03T01:09:26;101914.66;;;-1.22;100.00
25759;BME280;13604;52.496;13.456;2023-03-03T01:11:52;101913.75;;;-1.23;100.00
25759;BME280;13604;52.496;13.456;2023-03-03T01:14:17;101920.19;;;-1.26;100.00
25759;BME280;13604;52.496;13.456;2023-03-03T01:16:42;101886.56;;;-1.45;100.00
25759;BME280;13604;52.496;13.456;2023-03-03T01:19:08;101921.44;;;-1.23;100.00
25759;BME280;13604;52.496;13.456;2023-03-03T01:21:33;101913.34;;;-1.19;100.00
25759;BME280;13604;52.496;13.456;2023-03-03T01:23:58;101899.56;;;-1.28;100.00
25759;BME280;13604;52.496;13.456;2023-03-03T01:26:24;101890.88;;;-1.37;100.00
25759;BME280;13604;52.496;13.456;2023-03-03T01:28:49;101902.66;;;-1.23;100.00
25759;BME280;13604;52.496;13.456;2023-03-03T01:31:14;101902.91;;;-1.13;100.00
25759;BME280;13604;52.496;13.456;2023-03-03T01:33:40;101893.06;;;-1.17;100.00
25759;BME280;13604;52.496;13.456;2023-03-03T01:36:06;101892.34;;;-1.16;100.00
25759;BME280;13604;52.496;13.456;2023-03-03T01:38:34;101885.19;;;-1.12;100.00
25759;BME280;13604;52.496;13.456;2023-03-03T01:41:00;101856.59;;;-1.39;100.00
25759;BME280;13604;52.496;13.456;2023-03-03T01:43:26;101890.66;;;-1.32;100.00
25759;BME280;13604;52.496;13.456;2023-03-03T01:48:28;101878.59;;;-1.33;100.00
25759;BME280;13604;52.496;13.456;2023-03-03T01:51:03;101886.97;;;-1.26;100.00
25759;BME280;13604;52.496;13.456;2023-03-03T01:53:36;101878.16;;;-1.21;100.00
25759;BME280;13604;52.496;13.456;2023-03-03T01:56:04;101882.66;;;-1.19;100.00
25759;BME280;13604;52.496;13.456;2023-03-03T01:58:34;101887.22;;;-1.16;100.00
25759;BME280;13604;52.496;13.456;2023-03-03T02:01:03;101878.50;;;-1.18;100.00
25759;BME280;13604;52.496;13.456;2023-03-03T02:03:30;101878.66;;;-1.17;100.00
25759;BME280;13604;52.496;13.456;2023-03-03T02:05:59;101882.63;;;-1.12;100.00
25759;BME280;13604;52.496;13.456;2023-03-03T02:08:32;101854.22;;;-1.22;100.00
25759;BME280;13604;52.496;13.456;2023-03-03T02:11:00;101882.88;;;-1.01;100.00
25759;BME280;13604;52.496;13.456;2023-03-03T02:13:27;101885.69;;;-1.07;100.00
25759;BME280;13604;52.496;13.456;2023-03-03T02:15:52;101877.09;;;-1.23;100.00
25759;BME280;13604;52.496;13.456;2023-03-03T02:18:18;101865.94;;;-1.24;100.00
25759;BME280;13604;52.496;13.456;2023-03-03T02:26:12;101898.75;;;-0.97;100.00
25759;BME280;13604;52.496;13.456;2023-03-03T02:28:38;101893.19;;;-0.93;100.00
25759;BME280;13604;52.496;13.456;2023-03-03T02:31:07;101899.88;;;-1.02;100.00
25759;BME280;13604;52.496;13.456;2023-03-03T02:33:36;101888.09;;;-1.08;100.00
25759;BME280;13604;52.496;13.456;2023-03-03T02:36:01;101901.81;;;-0.92;100.00
25759;BME280;13604;52.496;13.456;2023-03-03T02:41:39;101881.22;;;-1.01;100.00
25759;BME280;13604;52.496;13.456;2023-03-03T02:44:13;101893.38;;;-1.07;100.00
25759;BME280;13604;52.496;13.456;2023-03-03T02:46:42;101896.19;;;-0.97;100.00
25759;BME280;13604;52.496;13.456;2023-03-03T02:49:09;101891.53;;;-1.08;100.00
25759;BME280;13604;52.496;13.456;2023-03-03T02:51:35;101898.22;;;-1.01;100.00
25759;BME280;13604;52.496;13.456;2023-03-03T02:54:01;101892.84;;;-1.12;100.00
25759;BME280;13604;52.496;13.456;2023-03-03T02:56:27;101890.06;;;-1.06;100.00
25759;BME280;13604;52.496;13.456;2023-03-03T02:58:52;101901.66;;;-1.17;100.00
25759;BME280;13604;52.496;13.456;2023-03-03T03:01:18;101861.06;;;-1.30;100.00
25759;BME280;13604;52.496;13.456;2023-03-03T03:03:43;101886.78;;;-1.28;100.00
25759;BME280;13604;52.496;13.456;2023-03-03T03:06:09;101880.44;;;-1.32;100.00
25759;BME280;13604;52.496;13.456;2023-03-03T03:08:35;101891.31;;;-1.25;100.00
25759;BME280;13604;52.496;13.456;2023-03-03T03:11:00;101903.72;;;-1.21;100.00
25759;BME280;13604;52.496;13.456;2023-03-03T03:13:26;101903.88;;;-1.20;100.00
25759;BME280;13604;52.496;13.456;2023-03-03T03:15:51;101905.19;;;-1.23;100.00
25759;BME280;13604;52.496;13.456;2023-03-03T03:18:17;101911.94;;;-1.24;100.00
25759;BME280;13604;52.496;13.456;2023-03-03T03:20:43;101908.69;;;-1.30;100.00
25759;BME280;13604;52.496;13.456;2023-03-03T03:23:10;101920.13;;;-1.19;100.00
25759;BME280;13604;52.496;13.456;2023-03-03T03:25:36;101916.69;;;-1.27;100.00
25759;BME280;13604;52.496;13.456;2023-03-03T03:28:10;101892.00;;;-1.42;100.00
25759;BME280;13604;52.496;13.456;2023-03-03T03:30:36;101886.78;;;-1.51;100.00
25759;BME280;13604;52.496;13.456;2023-03-03T03:33:02;101927.53;;;-1.37;100.00
25759;BME280;13604;52.496;13.456;2023-03-03T03:35:27;101916.44;;;-1.37;100.00
25759;BME280;13604;52.496;13.456;2023-03-03T03:37:52;101922.22;;;-1.31;100.00
25759;BME280;13604;52.496;13.456;2023-03-03T03:40:18;101933.69;;;-1.27;100.00
25759;BME280;13604;52.496;13.456;2023-03-03T03:42:43;101899.06;;;-1.56;100.00
25759;BME280;13604;52.496;13.456;2023-03-03T03:45:09;101919.16;;;-1.36;100.00
25759;BME280;13604;52.496;13.456;2023-03-03T03:47:42;101917.00;;;-1.40;100.00
25759;BME280;13604;52.496;13.456;2023-03-03T03:50:08;101916.44;;;-1.37;100.00
25759;BME280;13604;52.496;13.456;2023-03-03T03:52:34;101913.34;;;-1.42;100.00
25759;BME280;13604;52.496;13.456;2023-03-03T03:54:59;101887.53;;;-1.52;100.00
25759;BME280;13604;52.496;13.456;2023-03-03T03:57:25;101893.25;;;-1.39;100.00
25759;BME280;13604;52.496;13.456;2023-03-03T03:59:50;101908.13;;;-1.27;100.00
25759;BME280;13604;52.496;13.456;2023-03-03T04:02:16;101904.91;;;-1.34;100.00
25759;BME280;13604;52.496;13.456;2023-03-03T04:04:41;101854.56;;;-1.58;100.00
25759;BME280;13604;52.496;13.456;2023-03-03T04:07:06;101895.97;;;-1.37;100.00
25759;BME280;13604;52.496;13.456;2023-03-03T04:09:32;101898.19;;;-1.40;100.00
25759;BME280;13604;52.496;13.456;2023-03-03T04:11:57;101882.16;;;-1.46;100.00
25759;BME280;13604;52.496;13.456;2023-03-03T04:14:22;101870.16;;;-1.48;100.00
25759;BME280;13604;52.496;13.456;2023-03-03T04:16:48;101868.94;;;-1.58;100.00
25759;BME280;13604;52.496;13.456;2023-03-03T04:19:13;101883.91;;;-1.54;100.00
25759;BME280;13604;52.496;13.456;2023-03-03T04:21:38;101884.88;;;-1.61;100.00
25759;BME280;13604;52.496;13.456;2023-03-03T04:24:04;101888.66;;;-1.57;100.00
25759;BME280;13604;52.496;13.456;2023-03-03T04:26:29;101887.94;;;-1.56;100.00
25759;BME280;13604;52.496;13.456;2023-03-03T04:28:55;101873.22;;;-1.66;100.00
25759;BME280;13604;52.496;13.456;2023-03-03T04:31:21;101888.13;;;-1.62;100.00
25759;BME280;13604;52.496;13.456;2023-03-03T04:33:46;101881.19;;;-1.63;100.00
25759;BME280;13604;52.496;13.456;2023-03-03T04:36:12;101882.13;;;-1.62;100.00
25759;BME280;13604;52.496;13.456;2023-03-03T04:38:37;101857.88;;;-1.89;100.00
25759;BME280;13604;52.496;13.456;2023-03-03T04:41:02;101883.66;;;-1.72;100.00
25759;BME280;13604;52.496;13.456;2023-03-03T04:43:28;101877.19;;;-1.84;100.00
25759;BME280;13604;52.496;13.456;2023-03-03T04:45:53;101858.09;;;-1.95;100.00
25759;BME280;13604;52.496;13.456;2023-03-03T04:48:19;101884.84;;;-1.84;100.00
25759;BME280;13604;52.496;13.456;2023-03-03T04:50:44;101884.84;;;-1.91;100.00
25759;BME280;13604;52.496;13.456;2023-03-03T04:53:09;101887.41;;;-1.91;100.00
25759;BME280;13604;52.496;13.456;2023-03-03T04:55:36;101891.09;;;-1.96;100.00
25759;BME280;13604;52.496;13.456;2023-03-03T04:58:03;101883.69;;;-2.09;100.00
25759;BME280;13604;52.496;13.456;2023-03-03T05:00:29;101889.50;;;-2.03;100.00
25759;BME280;13604;52.496;13.456;2023-03-03T05:02:54;101884.78;;;-2.07;100.00
25759;BME280;13604;52.496;13.456;2023-03-03T05:05:19;101880.00;;;-2.04;100.00
25759;BME280;13604;52.496;13.456;2023-03-03T05:07:44;101881.47;;;-1.99;100.00
25759;BME280;13604;52.496;13.456;2023-03-03T05:10:10;101881.47;;;-2.06;100.00
25759;BME280;13604;52.496;13.456;2023-03-03T05:12:36;101870.75;;;-2.11;100.00
25759;BME280;13604;52.496;13.456;2023-03-03T05:15:01;101850.25;;;-2.27;100.00
25759;BME280;13604;52.496;13.456;2023-03-03T05:17:27;101867.69;;;-2.15;100.00
25759;BME280;13604;52.496;13.456;2023-03-03T05:19:52;101883.91;;;-2.15;100.00
25759;BME280;13604;52.496;13.456;2023-03-03T05:22:18;101855.91;;;-2.29;100.00
25759;BME280;13604;52.496;13.456;2023-03-03T05:24:43;101857.19;;;-2.33;100.00
25759;BME280;13604;52.496;13.456;2023-03-03T05:27:13;101848.22;;;-2.22;100.00
25759;BME280;13604;52.496;13.456;2023-03-03T05:29:38;101858.44;;;-2.22;100.00
25759;BME280;13604;52.496;13.456;2023-03-03T05:32:03;101876.19;;;-2.08;100.00
25759;BME280;13604;52.496;13.456;2023-03-03T05:34:28;101872.69;;;-2.01;100.00
25759;BME280;13604;52.496;13.456;2023-03-03T05:36:54;101884.91;;;-1.98;100.00
25759;BME280;13604;52.496;13.456;2023-03-03T05:39:19;101861.72;;;-2.23;100.00
25759;BME280;13604;52.496;13.456;2023-03-03T05:41:44;101898.28;;;-2.08;100.00
25759;BME280;13604;52.496;13.456;2023-03-03T05:44:10;101870.84;;;-2.25;100.00
25759;BME280;13604;52.496;13.456;2023-03-03T05:46:35;101904.81;;;-2.03;100.00
25759;BME280;13604;52.496;13.456;2023-03-03T05:49:01;101902.84;;;-2.13;100.00
25759;BME280;13604;52.496;13.456;2023-03-03T05:51:26;101901.78;;;-2.15;100.00
25759;BME280;13604;52.496;13.456;2023-03-03T05:53:51;101918.69;;;-2.08;100.00
25759;BME280;13604;52.496;13.456;2023-03-03T05:56:17;101876.31;;;-2.29;100.00
25759;BME280;13604;52.496;13.456;2023-03-03T05:58:42;101907.19;;;-2.05;100.00
25759;BME280;13604;52.496;13.456;2023-03-03T06:01:07;101890.31;;;-2.26;100.00
25759;BME280;13604;52.496;13.456;2023-03-03T06:03:33;101910.50;;;-2.06;100.00
25759;BME280;13604;52.496;13.456;2023-03-03T06:05:58;101910.69;;;-2.11;100.00
25759;BME280;13604;52.496;13.456;2023-03-03T06:08:24;101907.34;;;-2.03;100.00
25759;BME280;13604;52.496;13.456;2023-03-03T06:10:49;101894.66;;;-2.10;100.00
25759;BME280;13604;52.496;13.456;2023-03-03T06:13:14;101892.94;;;-2.03;100.00
25759;BME280;13604;52.496;13.456;2023-03-03T06:15:39;101904.03;;;-1.95;100.00
25759;BME280;13604;52.496;13.456;2023-03-03T06:18:05;101898.94;;;-1.95;100.00
25759;BME280;13604;52.496;13.456;2023-03-03T06:20:30;101876.59;;;-2.12;100.00
25759;BME280;13604;52.496;13.456;2023-03-03T06:22:56;101911.69;;;-1.95;100.00
25759;BME280;13604;52.496;13.456;2023-03-03T06:25:21;101917.34;;;-1.90;100.00
25759;BME280;13604;52.496;13.456;2023-03-03T06:27:46;101920.41;;;-1.86;100.00
25759;BME280;13604;52.496;13.456;2023-03-03T06:30:12;101933.38;;;-1.91;100.00
25759;BME280;13604;52.496;13.456;2023-03-03T06:32:38;101912.59;;;-1.94;100.00
25759;BME280;13604;52.496;13.456;2023-03-03T06:35:03;101909.88;;;-1.96;100.00
25759;BME280;13604;52.496;13.456;2023-03-03T06:37:29;101923.63;;;-1.79;100.00
25759;BME280;13604;52.496;13.456;2023-03-03T06:39:54;101932.94;;;-1.80;100.00
25759;BME280;13604;52.496;13.456;2023-03-03T06:42:19;101928.75;;;-1.79;100.00
25759;BME280;13604;52.496;13.456;2023-03-03T06:44:46;101924.94;;;-1.83;100.00
25759;BME280;13604;52.496;13.456;2023-03-03T06:47:11;101863.31;;;-2.16;100.00
25759;BME280;13604;52.496;13.456;2023-03-03T06:49:36;101937.53;;;-1.85;100.00
25759;BME280;13604;52.496;13.456;2023-03-03T06:52:11;101919.19;;;-1.96;100.00
25759;BME280;13604;52.496;13.456;2023-03-03T06:54:36;101931.22;;;-1.95;100.00
25759;BME280;13604;52.496;13.456;2023-03-03T06:57:12;101946.91;;;-1.92;100.00
25759;BME280;13604;52.496;13.456;2023-03-03T06:59:39;101962.38;;;-1.91;100.00
25759;BME280;13604;52.496;13.456;2023-03-03T07:02:13;101967.31;;;-1.92;100.00
25759;BME280;13604;52.496;13.456;2023-03-03T07:04:40;101924.16;;;-2.05;100.00
25759;BME280;13604;52.496;13.456;2023-03-03T07:07:23;101966.91;;;-1.81;100.00
25759;BME280;13604;52.496;13.456;2023-03-03T07:09:53;101962.13;;;-1.78;100.00
25759;BME280;13604;52.496;13.456;2023-03-03T07:12:21;101946.78;;;-1.71;100.00
25759;BME280;13604;52.496;13.456;2023-03-03T07:14:50;101933.25;;;-1.70;100.00
25759;BME280;13604;52.496;13.456;2023-03-03T07:17:20;101938.16;;;-1.64;100.00
25759;BME280;13604;52.496;13.456;2023-03-03T07:19:47;101964.88;;;-1.46;100.00
25759;BME280;13604;52.496;13.456;2023-03-03T07:24:38;101978.47;;;-1.38;100.00
25759;BME280;13604;52.496;13.456;2023-03-03T07:27:18;101973.06;;;-1.41;100.00
25759;BME280;13604;52.496;13.456;2023-03-03T07:29:47;101972.19;;;-1.49;100.00
25759;BME280;13604;52.496;13.456;2023-03-03T07:32:33;101977.28;;;-1.49;100.00
25759;BME280;13604;52.496;13.456;2023-03-03T07:35:17;101973.31;;;-1.54;100.00
25759;BME280;13604;52.496;13.456;2023-03-03T07:37:48;101975.09;;;-1.46;100.00
25759;BME280;13604;52.496;13.456;2023-03-03T07:42:53;101967.78;;;-1.43;100.00
25759;BME280;13604;52.496;13.456;2023-03-03T07:45:30;101978.63;;;-1.30;100.00
25759;BME280;13604;52.496;13.456;2023-03-03T07:48:08;101969.19;;;-1.38;100.00
25759;BME280;13604;52.496;13.456;2023-03-03T07:50:40;101962.84;;;-1.41;100.00
25759;BME280;13604;52.496;13.456;2023-03-03T07:53:13;101976.16;;;-1.44;100.00
25759;BME280;13604;52.496;13.456;2023-03-03T07:55:39;101974.13;;;-1.39;100.00
25759;BME280;13604;52.496;13.456;2023-03-03T08:03:43;101994.00;;;-1.14;100.00
25759;BME280;13604;52.496;13.456;2023-03-03T08:11:38;101985.09;;;-0.94;100.00
25759;BME280;13604;52.496;13.456;2023-03-03T08:14:12;101981.41;;;-0.89;100.00
25759;BME280;13604;52.496;13.456;2023-03-03T08:16:39;101965.88;;;-1.14;100.00
25759;BME280;13604;52.496;13.456;2023-03-03T08:19:05;101979.31;;;-1.00;100.00
25759;BME280;13604;52.496;13.456;2023-03-03T08:21:30;101981.38;;;-1.05;100.00
25759;BME280;13604;52.496;13.456;2023-03-03T08:23:56;101992.22;;;-0.91;100.00
25759;BME280;13604;52.496;13.456;2023-03-03T08:26:23;101981.75;;;-0.86;100.00
25759;BME280;13604;52.496;13.456;2023-03-03T08:28:48;101981.06;;;-0.69;100.00
25759;BME280;13604;52.496;13.456;2023-03-03T08:31:14;101978.00;;;-0.73;100.00
25759;BME280;13604;52.496;13.456;2023-03-03T08:33:41;101983.31;;;-0.79;100.00
25759;BME280;13604;52.496;13.456;2023-03-03T08:36:07;101990.28;;;-0.78;100.00
25759;BME280;13604;52.496;13.456;2023-03-03T08:38:32;101991.63;;;-0.66;100.00
25759;BME280;13604;52.496;13.456;2023-03-03T08:40:58;101981.41;;;-0.66;100.00
25759;BME280;13604;52.496;13.456;2023-03-03T08:43:23;101993.50;;;-0.72;100.00
25759;BME280;13604;52.496;13.456;2023-03-03T08:45:51;101996.06;;;-0.72;100.00
25759;BME280;13604;52.496;13.456;2023-03-03T08:48:17;101988.28;;;-0.81;100.00
25759;BME280;13604;52.496;13.456;2023-03-03T08:50:43;101998.66;;;-0.79;100.00
25759;BME280;13604;52.496;13.456;2023-03-03T08:53:09;101993.00;;;-0.77;100.00
25759;BME280;13604;52.496;13.456;2023-03-03T08:55:35;101989.41;;;-0.86;100.00
25759;BME280;13604;52.496;13.456;2023-03-03T08:58:00;101999.19;;;-0.75;100.00
25759;BME280;13604;52.496;13.456;2023-03-03T09:00:26;102013.00;;;-0.65;100.00
25759;BME280;13604;52.496;13.456;2023-03-03T09:02:52;102001.28;;;-0.63;100.00
25759;BME280;13604;52.496;13.456;2023-03-03T09:05:19;101997.47;;;-0.67;100.00
25759;BME280;13604;52.496;13.456;2023-03-03T09:07:45;101956.94;;;-0.87;100.00
25759;BME280;13604;52.496;13.456;2023-03-03T09:10:13;101987.06;;;-0.68;100.00
25759;BME280;13604;52.496;13.456;2023-03-03T09:12:41;101956.28;;;-0.77;100.00
25759;BME280;13604;52.496;13.456;2023-03-03T09:17:38;101981.09;;;-0.05;99.35
25759;BME280;13604;52.496;13.456;2023-03-03T09:22:49;101980.00;;;0.09;97.44
25759;BME280;13604;52.496;13.456;2023-03-03T09:25:33;101940.47;;;-0.18;97.43
25759;BME280;13604;52.496;13.456;2023-03-03T09:28:00;101977.91;;;0.29;98.39
25759;BME280;13604;52.496;13.456;2023-03-03T09:30:36;101980.28;;;0.44;95.44
25759;BME280;13604;52.496;13.456;2023-03-03T09:33:20;101993.47;;;0.55;95.04
25759;BME280;13604;52.496;13.456;2023-03-03T09:35:50;101991.13;;;0.90;94.71
25759;BME280;13604;52.496;13.456;2023-03-03T09:38:25;101987.81;;;0.91;92.92
25759;BME280;13604;52.496;13.456;2023-03-03T09:46:47;101980.25;;;1.26;90.69
25759;BME280;13604;52.496;13.456;2023-03-03T09:49:27;101989.13;;;1.55;89.53
25759;BME280;13604;52.496;13.456;2023-03-03T09:55:11;101987.13;;;1.52;86.79
25759;BME280;13604;52.496;13.456;2023-03-03T09:57:50;101981.06;;;1.43;87.50
25759;BME280;13604;52.496;13.456;2023-03-03T10:03:52;101994.28;;;1.72;86.33
25759;BME280;13604;52.496;13.456;2023-03-03T10:06:30;101926.88;;;1.49;85.81
25759;BME280;13604;52.496;13.456;2023-03-03T10:12:10;101963.94;;;2.20;84.08
25759;BME280;13604;52.496;13.456;2023-03-03T10:14:47;101979.78;;;2.25;83.10
25759;BME280;13604;52.496;13.456;2023-03-03T10:17:19;101986.59;;;2.07;83.15
25759;BME280;13604;52.496;13.456;2023-03-03T10:22:28;101934.16;;;1.79;83.55
25759;BME280;13604;52.496;13.456;2023-03-03T10:28:39;101967.41;;;2.38;81.33
25759;BME280;13604;52.496;13.456;2023-03-03T10:31:27;101952.41;;;2.52;80.82
25759;BME280;13604;52.496;13.456;2023-03-03T10:36:56;101978.00;;;2.07;83.46
25759;BME280;13604;52.496;13.456;2023-03-03T10:39:44;101976.47;;;2.26;82.17
25759;BME280;13604;52.496;13.456;2023-03-03T10:42:25;101975.28;;;2.14;81.81
25759;BME280;13604;52.496;13.456;2023-03-03T10:52:48;101962.28;;;2.21;83.76
25759;BME280;13604;52.496;13.456;2023-03-03T10:55:34;101941.41;;;2.18;82.31
25759;BME280;13604;52.496;13.456;2023-03-03T10:58:24;101959.69;;;2.03;82.71
25759;BME280;13604;52.496;13.456;2023-03-03T11:08:55;101967.84;;;2.34;81.93
25759;BME280;13604;52.496;13.456;2023-03-03T11:22:18;101990.38;;;3.08;79.08
25759;BME280;13604;52.496;13.456;2023-03-03T11:25:03;101972.75;;;3.22;78.73
25759;BME280;13604;52.496;13.456;2023-03-03T11:27:55;101952.41;;;2.97;79.29
25759;BME280;13604;52.496;13.456;2023-03-03T11:33:09;101979.31;;;2.55;82.11
25759;BME280;13604;52.496;13.456;2023-03-03T11:36:01;101982.75;;;2.65;82.72
25759;BME280;13604;52.496;13.456;2023-03-03T11:39:02;101979.34;;;2.38;83.11
25759;BME280;13604;52.496;13.456;2023-03-03T11:41:31;101959.97;;;2.50;83.62
25759;BME280;13604;52.496;13.456;2023-03-03T11:44:04;101970.94;;;2.75;83.28
25759;BME280;13604;52.496;13.456;2023-03-03T11:46:41;101949.09;;;2.89;82.05
25759;BME280;13604;52.496;13.456;2023-03-03T11:49:16;101968.53;;;3.13;80.13
25759;BME280;13604;52.496;13.456;2023-03-03T11:54:26;101948.69;;;3.21;80.69
25759;BME280;13604;52.496;13.456;2023-03-03T11:57:19;101959.38;;;3.35;79.64
25759;BME280;13604;52.496;13.456;2023-03-03T12:00:18;101960.69;;;3.40;80.56
25759;BME280;13604;52.496;13.456;2023-03-03T12:03:16;101946.78;;;3.38;80.32
25759;BME280;13604;52.496;13.456;2023-03-03T12:05:51;101944.81;;;3.35;79.51
25759;BME280;13604;52.496;13.456;2023-03-03T12:08:31;101932.56;;;3.33;79.75
25759;BME280;13604;52.496;13.456;2023-03-03T12:11:19;101934.63;;;3.18;79.45
25759;BME280;13604;52.496;13.456;2023-03-03T12:13:52;101931.94;;;3.07;81.26
25759;BME280;13604;52.496;13.456;2023-03-03T12:19:06;101924.66;;;3.40;80.41
25759;BME280;13604;52.496;13.456;2023-03-03T12:21:55;101925.56;;;3.12;79.29
25759;BME280;13604;52.496;13.456;2023-03-03T12:24:35;101927.72;;;3.08;80.54
25759;BME280;13604;52.496;13.456;2023-03-03T12:30:02;101915.59;;;3.35;80.50
25759;BME280;13604;52.496;13.456;2023-03-03T12:35:36;101894.25;;;3.55;78.43
25759;BME280;13604;52.496;13.456;2023-03-03T12:38:27;101907.97;;;3.64;78.59
25759;BME280;13604;52.496;13.456;2023-03-03T12:44:00;101906.28;;;3.64;78.72
25759;BME280;13604;52.496;13.456;2023-03-03T12:46:38;101886.38;;;3.34;79.52
25759;BME280;13604;52.496;13.456;2023-03-03T12:49:07;101900.44;;;3.38;79.04
25759;BME280;13604;52.496;13.456;2023-03-03T12:51:47;101888.66;;;3.50;79.43
25759;BME280;13604;52.496;13.456;2023-03-03T13:02:42;101888.00;;;3.80;78.53
25759;BME280;13604;52.496;13.456;2023-03-03T13:05:14;101883.81;;;3.72;78.94
25759;BME280;13604;52.496;13.456;2023-03-03T13:07:50;101886.03;;;3.40;80.13
25759;BME280;13604;52.496;13.456;2023-03-03T13:10:38;101881.81;;;3.31;81.24
25759;BME280;13604;52.496;13.456;2023-03-03T13:13:17;101855.41;;;3.43;81.15
25759;BME280;13604;52.496;13.456;2023-03-03T13:15:59;101883.88;;;3.44;81.08
25759;BME280;13604;52.496;13.456;2023-03-03T13:18:50;101862.78;;;3.67;80.42
25759;BME280;13604;52.496;13.456;2023-03-03T13:21:25;101870.44;;;3.95;78.65
25759;BME280;13604;52.496;13.456;2023-03-03T13:24:15;101844.06;;;3.79;78.67
25759;BME280;13604;52.496;13.456;2023-03-03T13:26:44;101841.19;;;3.76;79.01
25759;BME280;13604;52.496;13.456;2023-03-03T13:29:18;101867.38;;;3.80;78.49
25759;BME280;13604;52.496;13.456;2023-03-03T13:31:55;101863.34;;;3.74;79.43
25759;BME280;13604;52.496;13.456;2023-03-03T13:34:31;101864.13;;;3.54;80.26
25759;BME280;13604;52.496;13.456;2023-03-03T13:37:04;101870.00;;;3.34;80.36
25759;BME280;13604;52.496;13.456;2023-03-03T13:39:37;101857.47;;;3.28;81.23
25759;BME280;13604;52.496;13.456;2023-03-03T13:42:11;101849.56;;;3.07;83.07
25759;BME280;13604;52.496;13.456;2023-03-03T13:44:45;101845.72;;;2.93;83.11
25759;BME280;13604;52.496;13.456;2023-03-03T13:47:16;101868.22;;;3.05;83.68
25759;BME280;13604;52.496;13.456;2023-03-03T13:50:00;101872.84;;;3.18;83.36
25759;BME280;13604;52.496;13.456;2023-03-03T13:52:28;101839.41;;;3.09;82.64
25759;BME280;13604;52.496;13.456;2023-03-03T13:55:01;101848.34;;;3.31;82.90
25759;BME280;13604;52.496;13.456;2023-03-03T14:00:42;101854.78;;;3.83;80.23
25759;BME280;13604;52.496;13.456;2023-03-03T14:05:48;101840.09;;;4.12;78.61
25759;BME280;13604;52.496;13.456;2023-03-03T14:11:40;101842.03;;;3.85;79.99
25759;BME280;13604;52.496;13.456;2023-03-03T14:14:28;101834.78;;;3.81;80.59
25759;BME280;13604;52.496;13.456;2023-03-03T14:17:10;101833.03;;;3.71;80.94
25759;BME280;13604;52.496;13.456;2023-03-03T14:19:43;101831.50;;;3.73;80.59
25759;BME280;13604;52.496;13.456;2023-03-03T14:22:17;101826.00;;;3.60;80.44
25759;BME280;13604;52.496;13.456;2023-03-03T14:25:04;101824.06;;;3.38;81.82
25759;BME280;13604;52.496;13.456;2023-03-03T14:30:29;101815.44;;;3.38;82.28
25759;BME280;13604;52.496;13.456;2023-03-03T14:35:42;101815.94;;;3.53;81.48
25759;BME280;13604;52.496;13.456;2023-03-03T14:40:34;101810.50;;;3.68;80.87
25759;BME280;13604;52.496;13.456;2023-03-03T14:43:05;101812.00;;;3.66;81.04
25759;BME280;13604;52.496;13.456;2023-03-03T14:45:43;101799.78;;;3.64;80.66
25759;BME280;13604;52.496;13.456;2023-03-03T14:48:15;101816.75;;;3.81;80.80
25759;BME280;13604;52.496;13.456;2023-03-03T14:50:52;101775.09;;;3.76;80.57
25759;BME280;13604;52.496;13.456;2023-03-03T14:55:46;101794.50;;;3.92;79.57
25759;BME280;13604;52.496;13.456;2023-03-03T15:03:34;101787.91;;;3.85;80.66
25759;BME280;13604;52.496;13.456;2023-03-03T15:06:10;101780.53;;;3.79;80.62